sensor_id;sensor_type;location;lat;lon;timestamp;pressure;altitude;pressure_sealevel;temperature;humidity
43770;BME280;6597;52.218;9.882;2024-02-16T00:01:11;100483.81;;;10.71;100.00
43770;BME280;6597;52.218;9.882;2024-02-16T00:03:39;100493.34;;;10.73;100.00
43770;BME280;6597;52.218;9.882;2024-02-16T00:06:07;100483.66;;;10.75;100.00
43770;BME280;6597;52.218;9.882;2024-02-16T00:08:34;100491.41;;;10.78;100.00
43770;BME280;6597;52.218;9.882;2024-02-16T00:11:04;100484.25;;;10.82;100.00
43770;BME280;6597;52.218;9.882;2024-02-16T00:13:30;100484.19;;;10.83;100.00
43770;BME280;6597;52.218;9.882;2024-02-16T00:15:57;100479.84;;;10.82;100.00
43770;BME280;6597;52.218;9.882;2024-02-16T00:18:24;100476.50;;;10.79;100.00
43770;BME280;6597;52.218;9.882;2024-02-16T00:20:50;100483.59;;;10.77;100.00
43770;BME280;6597;52.218;9.882;2024-02-16T00:23:18;100481.19;;;10.71;100.00
43770;BME280;6597;52.218;9.882;2024-02-16T00:25:47;100481.31;;;10.68;100.00
43770;BME280;6597;52.218;9.882;2024-02-16T00:28:14;100482.28;;;10.65;100.00
43770;BME280;6597;52.218;9.882;2024-02-16T00:30:40;100480.56;;;10.64;100.00
43770;BME280;6597;52.218;9.882;2024-02-16T00:33:07;100475.19;;;10.67;100.00
43770;BME280;6597;52.218;9.882;2024-02-16T00:35:34;100461.16;;;10.68;100.00
43770;BME280;6597;52.218;9.882;2024-02-16T00:38:00;100462.31;;;10.61;100.00
43770;BME280;6597;52.218;9.882;2024-02-16T00:40:28;100453.00;;;10.54;100.00
43770;BME280;6597;52.218;9.882;2024-02-16T00:42:55;100448.13;;;10.45;100.00
43770;BME280;6597;52.218;9.882;2024-02-16T00:45:21;100443.94;;;10.39;100.00
43770;BME280;6597;52.218;9.882;2024-02-16T00:47:47;100436.13;;;10.38;100.00
43770;BME280;6597;52.218;9.882;2024-02-16T00:50:14;100431.13;;;10.32;100.00
43770;BME280;6597;52.218;9.882;2024-02-16T00:52:41;100433.81;;;10.30;100.00
43770;BME280;6597;52.218;9.882;2024-02-16T00:55:10;100431.31;;;10.27;100.00
43770;BME280;6597;52.218;9.882;2024-02-16T00:57:39;100435.56;;;10.29;100.00
43770;BME280;6597;52.218;9.882;2024-02-16T01:00:07;100427.72;;;10.29;100.00
43770;BME280;6597;52.218;9.882;2024-02-16T01:02:34;100435.56;;;10.29;100.00
43770;BME280;6597;52.218;9.882;2024-02-16T01:05:00;100429.47;;;10.29;100.00
43770;BME280;6597;52.218;9.882;2024-02-16T01:07:28;100426.13;;;10.25;100.00
43770;BME280;6597;52.218;9.882;2024-02-16T01:09:56;100409.47;;;10.26;100.00
43770;BME280;6597;52.218;9.882;2024-02-16T01:12:23;100402.44;;;10.27;100.00
43770;BME280;6597;52.218;9.882;2024-02-16T01:14:50;100399.91;;;10.25;100.00
43770;BME280;6597;52.218;9.882;2024-02-16T01:17:17;100389.47;;;10.24;100.00
43770;BME280;6597;52.218;9.882;2024-02-16T01:19:44;100386.09;;;10.20;100.00
43770;BME280;6597;52.218;9.882;2024-02-16T01:22:12;100378.25;;;10.19;100.00
43770;BME280;6597;52.218;9.882;2024-02-16T01:24:38;100384.09;;;10.27;100.00
43770;BME280;6597;52.218;9.882;2024-02-16T01:27:05;100390.72;;;10.36;100.00
43770;BME280;6597;52.218;9.882;2024-02-16T01:29:31;100393.28;;;10.37;100.00
43770;BME280;6597;52.218;9.882;2024-02-16T01:31:59;100396.63;;;10.42;100.00
43770;BME280;6597;52.218;9.882;2024-02-16T01:34:26;100391.97;;;10.49;100.00
43770;BME280;6597;52.218;9.882;2024-02-16T01:36:55;100398.59;;;10.57;100.00
43770;BME280;6597;52.218;9.882;2024-02-16T01:39:22;100395.66;;;10.65;100.00
43770;BME280;6597;52.218;9.882;2024-02-16T01:41:48;100395.19;;;10.77;100.00
43770;BME280;6597;52.218;9.882;2024-02-16T01:44:15;100396.63;;;10.84;100.00
43770;BME280;6597;52.218;9.882;2024-02-16T01:46:42;100392.16;;;10.86;100.00
43770;BME280;6597;52.218;9.882;2024-02-16T01:49:10;100398.41;;;10.84;100.00
43770;BME280;6597;52.218;9.882;2024-02-16T01:51:39;100398.25;;;10.87;100.00
43770;BME280;6597;52.218;9.882;2024-02-16T01:54:06;100393.88;;;10.87;100.00
43770;BME280;6597;52.218;9.882;2024-02-16T01:56:33;100394.78;;;10.86;100.00
43770;BME280;6597;52.218;9.882;2024-02-16T01:58:59;100393.06;;;10.85;100.00
43770;BME280;6597;52.218;9.882;2024-02-16T02:01:26;100396.69;;;10.83;100.00
43770;BME280;6597;52.218;9.882;2024-02-16T02:03:52;100394.06;;;10.83;100.00
43770;BME280;6597;52.218;9.882;2024-02-16T02:06:20;100391.31;;;10.86;100.00
43770;BME280;6597;52.218;9.882;2024-02-16T02:08:47;100392.88;;;10.90;100.00
43770;BME280;6597;52.218;9.882;2024-02-16T02:11:13;100392.94;;;10.88;100.00
43770;BME280;6597;52.218;9.882;2024-02-16T02:13:40;100399.25;;;10.84;100.00
43770;BME280;6597;52.218;9.882;2024-02-16T02:16:07;100387.75;;;10.87;100.00
43770;BME280;6597;52.218;9.882;2024-02-16T02:18:36;100385.84;;;10.90;100.00
43770;BME280;6597;52.218;9.882;2024-02-16T02:21:02;100393.72;;;10.90;99.63
43770;BME280;6597;52.218;9.882;2024-02-16T02:23:30;100386.72;;;10.91;98.88
43770;BME280;6597;52.218;9.882;2024-02-16T02:25:59;100376.91;;;10.95;98.80
43770;BME280;6597;52.218;9.882;2024-02-16T02:28:26;100385.00;;;10.90;98.80
43770;BME280;6597;52.218;9.882;2024-02-16T02:30:54;100377.31;;;10.85;99.64
43770;BME280;6597;52.218;9.882;2024-02-16T02:33:21;100380.00;;;10.84;99.65
43770;BME280;6597;52.218;9.882;2024-02-16T02:35:47;100373.13;;;10.81;99.81
43770;BME280;6597;52.218;9.882;2024-02-16T02:38:14;100370.50;;;10.81;99.86
43770;BME280;6597;52.218;9.882;2024-02-16T02:40:42;100372.28;;;10.81;99.83
43770;BME280;6597;52.218;9.882;2024-02-16T02:43:08;100374.81;;;10.82;99.35
43770;BME280;6597;52.218;9.882;2024-02-16T02:45:35;100379.16;;;10.83;99.30
43770;BME280;6597;52.218;9.882;2024-02-16T02:48:02;100376.53;;;10.83;99.33
43770;BME280;6597;52.218;9.882;2024-02-16T02:50:28;100378.91;;;10.89;98.26
43770;BME280;6597;52.218;9.882;2024-02-16T02:52:56;100372.59;;;10.94;97.94
43770;BME280;6597;52.218;9.882;2024-02-16T02:55:22;100362.22;;;10.90;97.86
43770;BME280;6597;52.218;9.882;2024-02-16T02:57:50;100368.53;;;10.86;97.70
43770;BME280;6597;52.218;9.882;2024-02-16T03:00:17;100358.81;;;10.88;98.34
43770;BME280;6597;52.218;9.882;2024-02-16T03:02:44;100363.28;;;10.86;98.56
43770;BME280;6597;52.218;9.882;2024-02-16T03:05:11;100362.34;;;10.87;98.21
43770;BME280;6597;52.218;9.882;2024-02-16T03:07:38;100355.31;;;10.88;98.55
43770;BME280;6597;52.218;9.882;2024-02-16T03:10:05;100350.16;;;10.86;97.97
43770;BME280;6597;52.218;9.882;2024-02-16T03:12:34;100350.00;;;10.89;97.38
43770;BME280;6597;52.218;9.882;2024-02-16T03:15:02;100357.09;;;10.87;98.11
43770;BME280;6597;52.218;9.882;2024-02-16T03:17:29;100348.50;;;10.84;97.87
43770;BME280;6597;52.218;9.882;2024-02-16T03:19:55;100356.44;;;10.82;97.86
43770;BME280;6597;52.218;9.882;2024-02-16T03:22:22;100356.50;;;10.81;98.04
43770;BME280;6597;52.218;9.882;2024-02-16T03:24:48;100352.97;;;10.82;97.74
43770;BME280;6597;52.218;9.882;2024-02-16T03:27:15;100358.88;;;10.87;97.14
43770;BME280;6597;52.218;9.882;2024-02-16T03:29:42;100347.31;;;10.91;96.81
43770;BME280;6597;52.218;9.882;2024-02-16T03:32:10;100347.25;;;10.93;96.34
43770;BME280;6597;52.218;9.882;2024-02-16T03:34:37;100350.47;;;10.99;96.09
43770;BME280;6597;52.218;9.882;2024-02-16T03:37:04;100345.19;;;10.99;95.80
43770;BME280;6597;52.218;9.882;2024-02-16T03:39:30;100340.66;;;11.03;95.64
43770;BME280;6597;52.218;9.882;2024-02-16T03:41:57;100340.56;;;11.06;95.25
43770;BME280;6597;52.218;9.882;2024-02-16T03:44:23;100339.56;;;11.08;95.07
43770;BME280;6597;52.218;9.882;2024-02-16T03:46:50;100336.69;;;11.14;94.51
43770;BME280;6597;52.218;9.882;2024-02-16T03:49:18;100338.25;;;11.18;94.32
43770;BME280;6597;52.218;9.882;2024-02-16T03:51:44;100342.78;;;11.15;94.07
43770;BME280;6597;52.218;9.882;2024-02-16T03:54:11;100331.34;;;11.16;94.09
43770;BME280;6597;52.218;9.882;2024-02-16T03:56:37;100332.19;;;11.16;94.09
43770;BME280;6597;52.218;9.882;2024-02-16T03:59:04;100336.53;;;11.17;93.98
43770;BME280;6597;52.218;9.882;2024-02-16T04:01:31;100339.03;;;11.20;94.27
43770;BME280;6597;52.218;9.882;2024-02-16T04:03:57;100327.53;;;11.23;93.82
43770;BME280;6597;52.218;9.882;2024-02-16T04:06:25;100337.09;;;11.24;93.73
43770;BME280;6597;52.218;9.882;2024-02-16T04:08:52;100332.78;;;11.23;93.79
43770;BME280;6597;52.218;9.882;2024-02-16T04:11:18;100334.75;;;11.18;94.01
43770;BME280;6597;52.218;9.882;2024-02-16T04:13:45;100335.03;;;11.12;94.85
43770;BME280;6597;52.218;9.882;2024-02-16T04:16:11;100333.34;;;11.11;94.84
43770;BME280;6597;52.218;9.882;2024-02-16T04:18:38;100337.00;;;11.07;94.87
43770;BME280;6597;52.218;9.882;2024-02-16T04:21:04;100324.84;;;11.04;95.35
43770;BME280;6597;52.218;9.882;2024-02-16T04:23:32;100329.66;;;10.95;96.08
43770;BME280;6597;52.218;9.882;2024-02-16T04:25:59;100331.81;;;10.85;96.72
43770;BME280;6597;52.218;9.882;2024-02-16T04:28:26;100326.91;;;10.77;97.00
43770;BME280;6597;52.218;9.882;2024-02-16T04:30:52;100331.59;;;10.69;98.41
43770;BME280;6597;52.218;9.882;2024-02-16T04:33:18;100330.22;;;10.60;98.80
43770;BME280;6597;52.218;9.882;2024-02-16T04:35:45;100328.06;;;10.50;99.37
43770;BME280;6597;52.218;9.882;2024-02-16T04:38:13;100324.78;;;10.45;99.85
43770;BME280;6597;52.218;9.882;2024-02-16T04:40:41;100319.66;;;10.42;100.00
43770;BME280;6597;52.218;9.882;2024-02-16T04:43:08;100313.59;;;10.40;100.00
43770;BME280;6597;52.218;9.882;2024-02-16T04:45:34;100322.28;;;10.42;100.00
43770;BME280;6597;52.218;9.882;2024-02-16T04:48:05;100317.03;;;10.42;100.00
43770;BME280;6597;52.218;9.882;2024-02-16T04:50:32;100313.31;;;10.47;100.00
43770;BME280;6597;52.218;9.882;2024-02-16T04:52:59;100318.50;;;10.49;100.00
43770;BME280;6597;52.218;9.882;2024-02-16T04:55:27;100314.16;;;10.48;100.00
43770;BME280;6597;52.218;9.882;2024-02-16T04:57:54;100325.97;;;10.58;99.44
43770;BME280;6597;52.218;9.882;2024-02-16T05:00:21;100328.31;;;10.64;98.86
43770;BME280;6597;52.218;9.882;2024-02-16T05:02:47;100324.44;;;10.73;98.21
43770;BME280;6597;52.218;9.882;2024-02-16T05:05:14;100326.00;;;10.78;97.71
43770;BME280;6597;52.218;9.882;2024-02-16T05:07:42;100324.16;;;10.80;97.27
43770;BME280;6597;52.218;9.882;2024-02-16T05:10:09;100320.47;;;10.84;96.45
43770;BME280;6597;52.218;9.882;2024-02-16T05:12:36;100329.13;;;10.86;96.48
43770;BME280;6597;52.218;9.882;2024-02-16T05:15:05;100313.50;;;10.83;96.44
43770;BME280;6597;52.218;9.882;2024-02-16T05:17:32;100327.16;;;10.91;95.62
43770;BME280;6597;52.218;9.882;2024-02-16T05:19:58;100326.31;;;10.91;95.68
43770;BME280;6597;52.218;9.882;2024-02-16T05:22:25;100329.84;;;10.90;96.27
43770;BME280;6597;52.218;9.882;2024-02-16T05:24:51;100329.28;;;10.83;96.66
43770;BME280;6597;52.218;9.882;2024-02-16T05:27:18;100337.00;;;10.86;96.18
43770;BME280;6597;52.218;9.882;2024-02-16T05:29:45;100334.38;;;10.86;96.74
43770;BME280;6597;52.218;9.882;2024-02-16T05:32:12;100315.94;;;10.88;96.56
43770;BME280;6597;52.218;9.882;2024-02-16T05:34:39;100332.69;;;10.85;96.53
43770;BME280;6597;52.218;9.882;2024-02-16T05:37:06;100326.50;;;10.86;96.40
43770;BME280;6597;52.218;9.882;2024-02-16T05:39:36;100323.81;;;10.88;95.89
43770;BME280;6597;52.218;9.882;2024-02-16T05:42:19;100326.25;;;10.93;95.66
43770;BME280;6597;52.218;9.882;2024-02-16T05:44:46;100327.16;;;10.91;95.75
43770;BME280;6597;52.218;9.882;2024-02-16T05:47:14;100325.53;;;10.89;96.28
43770;BME280;6597;52.218;9.882;2024-02-16T05:49:41;100323.03;;;10.86;96.22
43770;BME280;6597;52.218;9.882;2024-02-16T05:52:07;100319.69;;;10.82;96.38
43770;BME280;6597;52.218;9.882;2024-02-16T05:54:43;100321.66;;;10.77;96.81
43770;BME280;6597;52.218;9.882;2024-02-16T05:57:10;100313.72;;;10.79;96.62
43770;BME280;6597;52.218;9.882;2024-02-16T05:59:38;100320.53;;;10.83;95.39
43770;BME280;6597;52.218;9.882;2024-02-16T06:02:04;100313.19;;;10.91;94.66
43770;BME280;6597;52.218;9.882;2024-02-16T06:04:33;100314.81;;;10.94;94.55
43770;BME280;6597;52.218;9.882;2024-02-16T06:06:59;100316.53;;;10.95;94.71
43770;BME280;6597;52.218;9.882;2024-02-16T06:09:26;100316.44;;;10.96;94.71
43770;BME280;6597;52.218;9.882;2024-02-16T06:12:00;100321.13;;;10.89;95.19
43770;BME280;6597;52.218;9.882;2024-02-16T06:14:28;100322.38;;;10.81;96.29
43770;BME280;6597;52.218;9.882;2024-02-16T06:16:55;100323.09;;;10.84;94.94
43770;BME280;6597;52.218;9.882;2024-02-16T06:19:22;100329.84;;;10.90;94.97
43770;BME280;6597;52.218;9.882;2024-02-16T06:21:49;100333.25;;;10.92;94.57
43770;BME280;6597;52.218;9.882;2024-02-16T06:24:16;100330.84;;;10.87;95.10
43770;BME280;6597;52.218;9.882;2024-02-16T06:26:44;100323.31;;;10.80;95.56
43770;BME280;6597;52.218;9.882;2024-02-16T06:29:10;100307.81;;;10.74;96.01
43770;BME280;6597;52.218;9.882;2024-02-16T06:31:37;100310.75;;;10.66;96.90
43770;BME280;6597;52.218;9.882;2024-02-16T06:34:03;100323.88;;;10.66;96.52
43770;BME280;6597;52.218;9.882;2024-02-16T06:36:30;100317.69;;;10.67;96.74
43770;BME280;6597;52.218;9.882;2024-02-16T06:38:58;100305.34;;;10.69;96.12
43770;BME280;6597;52.218;9.882;2024-02-16T06:41:25;100317.41;;;10.75;96.09
43770;BME280;6597;52.218;9.882;2024-02-16T06:43:52;100319.81;;;10.79;95.36
43770;BME280;6597;52.218;9.882;2024-02-16T06:46:18;100323.69;;;10.91;94.26
43770;BME280;6597;52.218;9.882;2024-02-16T06:48:45;100308.44;;;10.99;93.80
43770;BME280;6597;52.218;9.882;2024-02-16T06:51:12;100314.22;;;11.07;93.32
43770;BME280;6597;52.218;9.882;2024-02-16T06:53:38;100317.63;;;11.09;92.88
43770;BME280;6597;52.218;9.882;2024-02-16T06:56:06;100326.22;;;11.13;92.63
43770;BME280;6597;52.218;9.882;2024-02-16T06:58:33;100326.22;;;11.13;93.18
43770;BME280;6597;52.218;9.882;2024-02-16T07:01:01;100314.72;;;11.15;91.84
43770;BME280;6597;52.218;9.882;2024-02-16T07:03:28;100319.84;;;11.18;91.63
43770;BME280;6597;52.218;9.882;2024-02-16T07:05:55;100326.81;;;11.19;91.67
43770;BME280;6597;52.218;9.882;2024-02-16T07:08:22;100331.34;;;11.16;92.09
43770;BME280;6597;52.218;9.882;2024-02-16T07:10:49;100327.94;;;11.14;92.41
43770;BME280;6597;52.218;9.882;2024-02-16T07:13:18;100324.38;;;11.15;92.17
43770;BME280;6597;52.218;9.882;2024-02-16T07:15:45;100311.25;;;11.15;92.83
43770;BME280;6597;52.218;9.882;2024-02-16T07:18:11;100315.53;;;11.17;92.67
43770;BME280;6597;52.218;9.882;2024-02-16T07:20:40;100324.91;;;11.23;91.75
43770;BME280;6597;52.218;9.882;2024-02-16T07:23:06;100336.25;;;11.23;92.48
43770;BME280;6597;52.218;9.882;2024-02-16T07:25:34;100345.84;;;11.25;92.56
43770;BME280;6597;52.218;9.882;2024-02-16T07:28:01;100335.25;;;11.26;93.22
43770;BME280;6597;52.218;9.882;2024-02-16T07:30:29;100331.00;;;11.23;93.18
43770;BME280;6597;52.218;9.882;2024-02-16T07:32:55;100340.72;;;11.21;93.77
43770;BME280;6597;52.218;9.882;2024-02-16T07:35:22;100335.53;;;11.20;93.72
43770;BME280;6597;52.218;9.882;2024-02-16T07:37:49;100336.25;;;11.23;92.92
43770;BME280;6597;52.218;9.882;2024-02-16T07:40:17;100333.34;;;11.30;93.62
43770;BME280;6597;52.218;9.882;2024-02-16T07:42:43;100338.47;;;11.33;92.99
43770;BME280;6597;52.218;9.882;2024-02-16T07:45:11;100335.31;;;11.45;92.42
43770;BME280;6597;52.218;9.882;2024-02-16T07:47:40;100328.28;;;11.64;90.98
43770;BME280;6597;52.218;9.882;2024-02-16T07:50:07;100323.19;;;11.80;90.19
43770;BME280;6597;52.218;9.882;2024-02-16T07:52:34;100320.19;;;11.88;88.99
43770;BME280;6597;52.218;9.882;2024-02-16T07:55:00;100329.66;;;11.92;88.16
43770;BME280;6597;52.218;9.882;2024-02-16T07:57:27;100332.84;;;11.98;87.39
43770;BME280;6597;52.218;9.882;2024-02-16T07:59:53;100332.56;;;12.04;87.31
43770;BME280;6597;52.218;9.882;2024-02-16T08:02:20;100326.63;;;12.18;84.85
43770;BME280;6597;52.218;9.882;2024-02-16T08:04:48;100326.94;;;12.29;84.91
43770;BME280;6597;52.218;9.882;2024-02-16T08:07:15;100323.66;;;12.43;83.55
43770;BME280;6597;52.218;9.882;2024-02-16T08:09:43;100323.97;;;12.54;82.94
43770;BME280;6597;52.218;9.882;2024-02-16T08:12:10;100330.47;;;12.64;82.93
43770;BME280;6597;52.218;9.882;2024-02-16T08:14:37;100322.19;;;12.72;82.16
43770;BME280;6597;52.218;9.882;2024-02-16T08:17:04;100331.31;;;12.82;82.92
43770;BME280;6597;52.218;9.882;2024-02-16T08:19:32;100331.84;;;12.89;81.67
43770;BME280;6597;52.218;9.882;2024-02-16T08:22:00;100330.22;;;13.03;81.97
43770;BME280;6597;52.218;9.882;2024-02-16T08:24:27;100320.44;;;13.23;81.68
43770;BME280;6597;52.218;9.882;2024-02-16T08:26:53;100329.94;;;13.43;80.40
43770;BME280;6597;52.218;9.882;2024-02-16T08:29:21;100316.50;;;13.63;79.58
43770;BME280;6597;52.218;9.882;2024-02-16T08:31:49;100319.84;;;13.82;79.96
43770;BME280;6597;52.218;9.882;2024-02-16T08:34:15;100326.91;;;13.97;77.80
43770;BME280;6597;52.218;9.882;2024-02-16T08:36:43;100328.56;;;14.00;77.11
43770;BME280;6597;52.218;9.882;2024-02-16T08:39:11;100335.25;;;13.90;77.91
43770;BME280;6597;52.218;9.882;2024-02-16T08:41:38;100333.31;;;13.78;78.72
43770;BME280;6597;52.218;9.882;2024-02-16T08:44:06;100334.91;;;13.64;80.03
43770;BME280;6597;52.218;9.882;2024-02-16T08:46:34;100342.63;;;13.52;80.98
43770;BME280;6597;52.218;9.882;2024-02-16T08:49:01;100336.31;;;13.38;81.64
43770;BME280;6597;52.218;9.882;2024-02-16T08:51:28;100337.63;;;13.30;81.45
43770;BME280;6597;52.218;9.882;2024-02-16T08:53:54;100334.16;;;13.29;81.37
43770;BME280;6597;52.218;9.882;2024-02-16T08:56:22;100320.59;;;13.37;79.96
43770;BME280;6597;52.218;9.882;2024-02-16T08:58:49;100324.16;;;13.52;79.98
43770;BME280;6597;52.218;9.882;2024-02-16T09:01:16;100333.28;;;13.62;80.04
43770;BME280;6597;52.218;9.882;2024-02-16T09:03:43;100338.84;;;13.73;79.24
43770;BME280;6597;52.218;9.882;2024-02-16T09:06:10;100346.84;;;13.87;79.49
43770;BME280;6597;52.218;9.882;2024-02-16T09:08:38;100340.09;;;13.97;78.08
43770;BME280;6597;52.218;9.882;2024-02-16T09:11:05;100350.09;;;14.08;78.51
43770;BME280;6597;52.218;9.882;2024-02-16T09:13:33;100341.56;;;14.19;78.44
43770;BME280;6597;52.218;9.882;2024-02-16T09:16:01;100343.50;;;14.31;77.75
43770;BME280;6597;52.218;9.882;2024-02-16T09:18:28;100345.53;;;14.42;77.46
43770;BME280;6597;52.218;9.882;2024-02-16T09:20:55;100346.31;;;14.44;76.93
43770;BME280;6597;52.218;9.882;2024-02-16T09:23:21;100339.34;;;14.43;77.19
43770;BME280;6597;52.218;9.882;2024-02-16T09:25:48;100336.84;;;14.40;77.69
43770;BME280;6597;52.218;9.882;2024-02-16T09:28:16;100351.00;;;14.39;77.70
43770;BME280;6597;52.218;9.882;2024-02-16T09:30:45;100351.09;;;14.37;77.17
43770;BME280;6597;52.218;9.882;2024-02-16T09:33:12;100346.38;;;14.26;77.78
43770;BME280;6597;52.218;9.882;2024-02-16T09:35:39;100348.84;;;14.29;77.59
43770;BME280;6597;52.218;9.882;2024-02-16T09:38:06;100360.13;;;14.33;77.72
43770;BME280;6597;52.218;9.882;2024-02-16T09:40:33;100369.56;;;14.37;77.56
43770;BME280;6597;52.218;9.882;2024-02-16T09:43:00;100365.75;;;14.43;77.48
43770;BME280;6597;52.218;9.882;2024-02-16T09:45:28;100366.16;;;14.51;78.05
43770;BME280;6597;52.218;9.882;2024-02-16T09:47:57;100374.66;;;14.56;78.33
43770;BME280;6597;52.218;9.882;2024-02-16T09:50:24;100374.84;;;14.53;78.89
43770;BME280;6597;52.218;9.882;2024-02-16T09:52:52;100372.66;;;14.45;78.99
43770;BME280;6597;52.218;9.882;2024-02-16T09:55:20;100366.75;;;14.40;78.20
43770;BME280;6597;52.218;9.882;2024-02-16T09:57:57;100372.72;;;14.44;77.58
43770;BME280;6597;52.218;9.882;2024-02-16T10:00:24;100373.50;;;14.46;77.53
43770;BME280;6597;52.218;9.882;2024-02-16T10:02:50;100371.53;;;14.49;77.08
43770;BME280;6597;52.218;9.882;2024-02-16T10:05:20;100374.75;;;14.54;77.41
43770;BME280;6597;52.218;9.882;2024-02-16T10:07:47;100380.44;;;14.62;77.73
43770;BME280;6597;52.218;9.882;2024-02-16T10:10:20;100363.31;;;14.70;78.03
43770;BME280;6597;52.218;9.882;2024-02-16T10:12:46;100384.28;;;14.73;77.81
43770;BME280;6597;52.218;9.882;2024-02-16T10:15:19;100377.09;;;14.75;77.37
43770;BME280;6597;52.218;9.882;2024-02-16T10:17:45;100377.38;;;14.70;76.27
43770;BME280;6597;52.218;9.882;2024-02-16T10:20:19;100383.78;;;14.66;76.97
43770;BME280;6597;52.218;9.882;2024-02-16T10:22:45;100392.75;;;14.63;77.10
43770;BME280;6597;52.218;9.882;2024-02-16T10:25:12;100388.44;;;14.61;77.06
43770;BME280;6597;52.218;9.882;2024-02-16T10:27:39;100387.94;;;14.70;77.28
43770;BME280;6597;52.218;9.882;2024-02-16T10:30:07;100388.88;;;14.69;77.06
43770;BME280;6597;52.218;9.882;2024-02-16T10:32:36;100398.41;;;14.72;76.98
43770;BME280;6597;52.218;9.882;2024-02-16T10:35:07;100403.44;;;14.76;76.90
43770;BME280;6597;52.218;9.882;2024-02-16T10:37:37;100398.16;;;14.76;76.65
43770;BME280;6597;52.218;9.882;2024-02-16T10:40:04;100389.38;;;14.76;76.64
43770;BME280;6597;52.218;9.882;2024-02-16T10:42:34;100399.00;;;14.77;77.12
43770;BME280;6597;52.218;9.882;2024-02-16T10:45:03;100394.47;;;14.79;77.07
43770;BME280;6597;52.218;9.882;2024-02-16T10:47:30;100396.84;;;14.83;76.55
43770;BME280;6597;52.218;9.882;2024-02-16T10:49:57;100401.84;;;14.88;77.46
43770;BME280;6597;52.218;9.882;2024-02-16T10:52:24;100393.56;;;14.94;77.63
43770;BME280;6597;52.218;9.882;2024-02-16T10:54:53;100392.63;;;14.95;76.24
43770;BME280;6597;52.218;9.882;2024-02-16T10:57:23;100389.38;;;15.06;77.00
43770;BME280;6597;52.218;9.882;2024-02-16T10:59:52;100395.41;;;15.08;76.86
43770;BME280;6597;52.218;9.882;2024-02-16T11:02:21;100392.00;;;15.06;77.72
43770;BME280;6597;52.218;9.882;2024-02-16T11:04:47;100394.28;;;15.12;78.25
43770;BME280;6597;52.218;9.882;2024-02-16T11:07:16;100381.72;;;15.15;78.31
43770;BME280;6597;52.218;9.882;2024-02-16T11:09:43;100382.97;;;15.24;77.42
43770;BME280;6597;52.218;9.882;2024-02-16T11:12:13;100389.28;;;15.21;77.46
43770;BME280;6597;52.218;9.882;2024-02-16T11:14:41;100384.09;;;15.20;76.70
43770;BME280;6597;52.218;9.882;2024-02-16T11:17:09;100378.53;;;15.24;77.58
43770;BME280;6597;52.218;9.882;2024-02-16T11:19:36;100388.16;;;15.25;78.43
43770;BME280;6597;52.218;9.882;2024-02-16T11:22:03;100381.84;;;15.28;78.65
43770;BME280;6597;52.218;9.882;2024-02-16T11:24:33;100375.34;;;15.34;78.53
43770;BME280;6597;52.218;9.882;2024-02-16T11:27:03;100382.34;;;15.35;78.29
43770;BME280;6597;52.218;9.882;2024-02-16T11:32:03;100385.47;;;15.41;78.22
43770;BME280;6597;52.218;9.882;2024-02-16T11:34:30;100381.97;;;15.41;78.46
43770;BME280;6597;52.218;9.882;2024-02-16T11:36:57;100378.38;;;15.42;77.74
43770;BME280;6597;52.218;9.882;2024-02-16T11:39:24;100384.03;;;15.50;77.51
43770;BME280;6597;52.218;9.882;2024-02-16T11:42:02;100382.13;;;15.52;76.75
43770;BME280;6597;52.218;9.882;2024-02-16T11:44:30;100387.44;;;15.52;76.69
43770;BME280;6597;52.218;9.882;2024-02-16T11:46:57;100388.38;;;15.51;77.17
43770;BME280;6597;52.218;9.882;2024-02-16T11:49:26;100382.03;;;15.53;77.28
43770;BME280;6597;52.218;9.882;2024-02-16T11:51:52;100377.09;;;15.63;77.19
43770;BME280;6597;52.218;9.882;2024-02-16T11:54:19;100383.03;;;15.81;76.56
43770;BME280;6597;52.218;9.882;2024-02-16T11:56:47;100387.81;;;15.88;76.12
43770;BME280;6597;52.218;9.882;2024-02-16T11:59:16;100383.28;;;15.91;76.55
43770;BME280;6597;52.218;9.882;2024-02-16T12:01:53;100384.63;;;15.98;76.15
43770;BME280;6597;52.218;9.882;2024-02-16T12:04:25;100390.28;;;16.06;74.91
43770;BME280;6597;52.218;9.882;2024-02-16T12:06:53;100402.06;;;16.14;75.54
43770;BME280;6597;52.218;9.882;2024-02-16T12:09:19;100391.94;;;16.21;73.76
43770;BME280;6597;52.218;9.882;2024-02-16T12:11:48;100397.81;;;16.26;73.89
43770;BME280;6597;52.218;9.882;2024-02-16T12:14:15;100399.56;;;16.40;73.43
43770;BME280;6597;52.218;9.882;2024-02-16T12:16:41;100402.66;;;16.46;72.31
43770;BME280;6597;52.218;9.882;2024-02-16T12:19:08;100400.34;;;16.69;72.37
43770;BME280;6597;52.218;9.882;2024-02-16T12:21:38;100400.50;;;16.93;71.12
43770;BME280;6597;52.218;9.882;2024-02-16T12:24:05;100404.41;;;16.87;70.00
43770;BME280;6597;52.218;9.882;2024-02-16T12:26:31;100405.75;;;16.80;70.04
43770;BME280;6597;52.218;9.882;2024-02-16T12:28:58;100402.91;;;16.83;69.54
43770;BME280;6597;52.218;9.882;2024-02-16T12:31:24;100403.56;;;16.87;69.91
43770;BME280;6597;52.218;9.882;2024-02-16T12:33:51;100403.81;;;16.96;69.54
43770;BME280;6597;52.218;9.882;2024-02-16T12:36:18;100409.00;;;16.98;69.83
43770;BME280;6597;52.218;9.882;2024-02-16T12:38:46;100415.16;;;16.98;70.28
43770;BME280;6597;52.218;9.882;2024-02-16T12:41:13;100407.41;;;16.95;68.53
43770;BME280;6597;52.218;9.882;2024-02-16T12:43:39;100421.16;;;16.88;69.53
43770;BME280;6597;52.218;9.882;2024-02-16T12:46:06;100420.19;;;16.89;70.33
43770;BME280;6597;52.218;9.882;2024-02-16T12:48:32;100417.84;;;16.84;69.83
43770;BME280;6597;52.218;9.882;2024-02-16T12:50:59;100421.03;;;16.76;70.88
43770;BME280;6597;52.218;9.882;2024-02-16T12:53:25;100419.97;;;16.79;71.24
43770;BME280;6597;52.218;9.882;2024-02-16T12:55:56;100409.97;;;16.70;70.99
43770;BME280;6597;52.218;9.882;2024-02-16T12:58:22;100422.88;;;16.62;72.65
43770;BME280;6597;52.218;9.882;2024-02-16T13:00:49;100419.94;;;16.52;72.18